Abbott, Mississippi
Current Conditions -  °F | °C
As of 11:15 AM on Sunday 23 Nov 2014 (Local Time) from KSTF Reporting Station
Overcast Overcast  
Wind Chill: 61°   Ceiling: 600
Heat Index: 61°   Visibility: NA
Dew Point: 59°   Wind: 7mph
Humidity: 94%   Direction: 130°SE
Pressure: 29.55"   Gusts: NA
Location:  33.6681°N, 88.7618°W
Report Text: KSTF 231715Z AUTO 13006KT OVC006 16/15 A2955 RMK AO2 P0004 PWINO
Loading
Personal Weather Stations






























Interactive Weather Map New forecast layout! Learn more

10-Day Weather Forecast

Advertisements
Track Severe Weather on mobile